Terminal Aerodrome Forecast
Issued by NWS Upton, NY

Home | Current Version | Previous Version | Text Only | Print | Product List | Glossary On
Versions: 1 2 3 4 5 6 7 8 9 10 11 12 13 14 15 16 17 18 19 20 21 22 23 24 25 26
000
FTUS41 KOKX 310200 AAA
TAFJFK
TAF AMD
KJFK 310230Z 3103/0106 20009KT P6SM SCT025 BKN035
      TEMPO 3106/3110 SCT015 BKN025
     FM311000 20008KT P6SM BKN015
     FM311500 19012KT P6SM SCT020 BKN040
     FM311800 19016KT P6SM SCT040 SCT080
     FM010000 20012KT 5SM SHRA BR SCT040 BKN080 PROB30 0100/0106
      TSRA BKN040CB=

USA.gov is the U.S. government's official web portal to all federal, state and local government web resources and services.